sensor_id;sensor_type;location;lat;lon;timestamp;pressure;altitude;pressure_sealevel;temperature;humidity
59419;BME280;45224;50.904;6.038;2023-04-02T00:00:34;99042.47;;;6.54;100.00
59419;BME280;45224;50.904;6.038;2023-04-02T00:05:43;99041.66;;;6.55;100.00
59419;BME280;45224;50.904;6.038;2023-04-02T00:07:24;99055.31;;;6.52;100.00
59419;BME280;45224;50.904;6.038;2023-04-02T00:11:00;99065.59;;;6.49;100.00
59419;BME280;45224;50.904;6.038;2023-04-02T00:12:31;99063.75;;;6.24;100.00
59419;BME280;45224;50.904;6.038;2023-04-02T00:14:04;99068.91;;;6.28;100.00
59419;BME280;45224;50.904;6.038;2023-04-02T00:15:40;99073.22;;;6.34;100.00
59419;BME280;45224;50.904;6.038;2023-04-02T00:17:12;99073.97;;;6.14;100.00
59419;BME280;45224;50.904;6.038;2023-04-02T00:18:49;99074.84;;;6.22;100.00
59419;BME280;45224;50.904;6.038;2023-04-02T00:20:21;99079.91;;;6.12;100.00
59419;BME280;45224;50.904;6.038;2023-04-02T00:21:52;99084.28;;;6.22;100.00
59419;BME280;45224;50.904;6.038;2023-04-02T00:23:23;99085.16;;;6.27;100.00
59419;BME280;45224;50.904;6.038;2023-04-02T00:24:55;99084.25;;;6.19;100.00
59419;BME280;45224;50.904;6.038;2023-04-02T00:26:33;99090.25;;;6.21;100.00
59419;BME280;45224;50.904;6.038;2023-04-02T00:28:04;99092.03;;;6.28;100.00
59419;BME280;45224;50.904;6.038;2023-04-02T00:29:35;99095.44;;;6.27;100.00
59419;BME280;45224;50.904;6.038;2023-04-02T00:31:09;99092.84;;;6.24;100.00
59419;BME280;45224;50.904;6.038;2023-04-02T00:32:40;99100.56;;;6.29;100.00
59419;BME280;45224;50.904;6.038;2023-04-02T00:34:31;99104.09;;;6.46;100.00
59419;BME280;45224;50.904;6.038;2023-04-02T00:36:05;99100.59;;;6.33;100.00
59419;BME280;45224;50.904;6.038;2023-04-02T00:37:37;99102.25;;;6.22;100.00
59419;BME280;45224;50.904;6.038;2023-04-02T00:39:16;99104.03;;;6.35;100.00
59419;BME280;45224;50.904;6.038;2023-04-02T00:40:48;99114.34;;;6.42;100.00
59419;BME280;45224;50.904;6.038;2023-04-02T00:42:19;99110.91;;;6.39;100.00
59419;BME280;45224;50.904;6.038;2023-04-02T00:43:50;99118.53;;;6.26;100.00
59419;BME280;45224;50.904;6.038;2023-04-02T00:45:30;99108.19;;;6.19;100.00
59419;BME280;45224;50.904;6.038;2023-04-02T00:47:18;99122.81;;;6.28;100.00
59419;BME280;45224;50.904;6.038;2023-04-02T00:49:11;99122.00;;;6.35;100.00
59419;BME280;45224;50.904;6.038;2023-04-02T00:50:44;99116.69;;;6.06;100.00
59419;BME280;45224;50.904;6.038;2023-04-02T00:52:18;99122.72;;;6.16;100.00
59419;BME280;45224;50.904;6.038;2023-04-02T00:53:53;99132.16;;;6.18;100.00
59419;BME280;45224;50.904;6.038;2023-04-02T00:55:38;99132.84;;;5.97;100.00
59419;BME280;45224;50.904;6.038;2023-04-02T00:57:15;99121.56;;;5.78;100.00
59419;BME280;45224;50.904;6.038;2023-04-02T00:58:51;99129.19;;;5.71;100.00
59419;BME280;45224;50.904;6.038;2023-04-02T01:02:19;99135.09;;;5.65;100.00
59419;BME280;45224;50.904;6.038;2023-04-02T01:03:59;99136.06;;;5.78;100.00
59419;BME280;45224;50.904;6.038;2023-04-02T01:05:33;99135.09;;;5.63;100.00
59419;BME280;45224;50.904;6.038;2023-04-02T01:07:07;99148.94;;;5.81;100.00
59419;BME280;45224;50.904;6.038;2023-04-02T01:10:31;99154.94;;;5.86;100.00
59419;BME280;45224;50.904;6.038;2023-04-02T01:16:48;99154.00;;;5.76;100.00
59419;BME280;45224;50.904;6.038;2023-04-02T01:21:10;99156.56;;;5.75;100.00
59419;BME280;45224;50.904;6.038;2023-04-02T01:23:56;99164.25;;;5.72;100.00
59419;BME280;45224;50.904;6.038;2023-04-02T01:25:45;99164.19;;;5.64;100.00
59419;BME280;45224;50.904;6.038;2023-04-02T01:27:33;99166.72;;;5.62;100.00
59419;BME280;45224;50.904;6.038;2023-04-02T01:29:22;99171.78;;;5.56;100.00
59419;BME280;45224;50.904;6.038;2023-04-02T01:30:56;99182.03;;;5.56;100.00
59419;BME280;45224;50.904;6.038;2023-04-02T01:32:29;99183.81;;;5.60;100.00
59419;BME280;45224;50.904;6.038;2023-04-02T01:34:01;99183.69;;;5.51;100.00
59419;BME280;45224;50.904;6.038;2023-04-02T01:35:35;99193.91;;;5.48;100.00
59419;BME280;45224;50.904;6.038;2023-04-02T01:39:13;99193.06;;;5.46;100.00
59419;BME280;45224;50.904;6.038;2023-04-02T01:40:57;99195.59;;;5.43;100.00
59419;BME280;45224;50.904;6.038;2023-04-02T01:44:08;99196.75;;;5.76;100.00
59419;BME280;45224;50.904;6.038;2023-04-02T01:45:41;99204.41;;;5.71;100.00
59419;BME280;45224;50.904;6.038;2023-04-02T01:47:15;99204.22;;;5.51;100.00
59419;BME280;45224;50.904;6.038;2023-04-02T01:48:46;99210.31;;;5.61;100.00
59419;BME280;45224;50.904;6.038;2023-04-02T01:51:54;99211.97;;;5.57;100.00
59419;BME280;45224;50.904;6.038;2023-04-02T01:53:30;99216.13;;;5.46;100.00
59419;BME280;45224;50.904;6.038;2023-04-02T01:55:02;99219.53;;;5.45;100.00
59419;BME280;45224;50.904;6.038;2023-04-02T01:56:34;99220.50;;;5.56;100.00
59419;BME280;45224;50.904;6.038;2023-04-02T01:58:05;99223.06;;;5.56;100.00
59419;BME280;45224;50.904;6.038;2023-04-02T01:59:36;99227.31;;;5.53;100.00
59419;BME280;45224;50.904;6.038;2023-04-02T02:01:18;99224.78;;;5.56;100.00
59419;BME280;45224;50.904;6.038;2023-04-02T02:02:51;99235.91;;;5.58;100.00
59419;BME280;45224;50.904;6.038;2023-04-02T02:04:22;99238.53;;;5.62;100.00
59419;BME280;45224;50.904;6.038;2023-04-02T02:05:53;99242.00;;;5.67;100.00
59419;BME280;45224;50.904;6.038;2023-04-02T02:07:26;99231.47;;;5.43;100.00
59419;BME280;45224;50.904;6.038;2023-04-02T02:09:01;99241.03;;;5.56;100.00
59419;BME280;45224;50.904;6.038;2023-04-02T02:10:35;99246.91;;;5.51;100.00
59419;BME280;45224;50.904;6.038;2023-04-02T02:12:06;99250.53;;;5.66;100.00
59419;BME280;45224;50.904;6.038;2023-04-02T02:13:36;99251.38;;;5.64;100.00
59419;BME280;45224;50.904;6.038;2023-04-02T02:15:17;99250.47;;;5.60;100.00
59419;BME280;45224;50.904;6.038;2023-04-02T02:16:48;99252.84;;;5.43;100.00
59419;BME280;45224;50.904;6.038;2023-04-02T02:18:20;99253.63;;;5.38;100.00
59419;BME280;45224;50.904;6.038;2023-04-02T02:19:55;99259.81;;;5.55;100.00
59419;BME280;45224;50.904;6.038;2023-04-02T02:21:38;99265.94;;;5.70;100.00
59419;BME280;45224;50.904;6.038;2023-04-02T02:23:11;99267.69;;;5.72;100.00
59419;BME280;45224;50.904;6.038;2023-04-02T02:24:42;99267.78;;;5.80;100.00
59419;BME280;45224;50.904;6.038;2023-04-02T02:26:14;99265.88;;;5.60;100.00
59419;BME280;45224;50.904;6.038;2023-04-02T02:29:25;99278.78;;;5.71;100.00
59419;BME280;45224;50.904;6.038;2023-04-02T02:31:11;99278.66;;;5.59;100.00
59419;BME280;45224;50.904;6.038;2023-04-02T02:35:47;99302.59;;;5.58;100.00
59419;BME280;45224;50.904;6.038;2023-04-02T02:37:27;99305.09;;;5.53;100.00
59419;BME280;45224;50.904;6.038;2023-04-02T02:40:46;99293.03;;;5.44;100.00
59419;BME280;45224;50.904;6.038;2023-04-02T02:42:26;99303.34;;;5.49;100.00
59419;BME280;45224;50.904;6.038;2023-04-02T02:45:47;99305.75;;;5.38;100.00
59419;BME280;45224;50.904;6.038;2023-04-02T02:47:22;99308.47;;;5.49;100.00
59419;BME280;45224;50.904;6.038;2023-04-02T02:48:54;99308.28;;;5.35;100.00
59419;BME280;45224;50.904;6.038;2023-04-02T02:50:27;99314.28;;;5.37;100.00
59419;BME280;45224;50.904;6.038;2023-04-02T02:52:13;99323.69;;;5.38;100.00
59419;BME280;45224;50.904;6.038;2023-04-02T02:54:01;99326.31;;;5.41;100.00
59419;BME280;45224;50.904;6.038;2023-04-02T02:55:35;99329.50;;;5.23;100.00
59419;BME280;45224;50.904;6.038;2023-04-02T02:57:42;99332.84;;;5.19;100.00
59419;BME280;45224;50.904;6.038;2023-04-02T02:59:16;99333.44;;;5.03;100.00
59419;BME280;45224;50.904;6.038;2023-04-02T03:00:48;99337.97;;;5.19;100.00
59419;BME280;45224;50.904;6.038;2023-04-02T03:02:20;99330.53;;;5.39;100.00
59419;BME280;45224;50.904;6.038;2023-04-02T03:03:53;99342.53;;;5.42;100.00
59419;BME280;45224;50.904;6.038;2023-04-02T03:05:26;99339.97;;;5.40;100.00
59419;BME280;45224;50.904;6.038;2023-04-02T03:07:02;99348.53;;;5.42;100.00
59419;BME280;45224;50.904;6.038;2023-04-02T03:08:39;99350.88;;;5.25;100.00
59419;BME280;45224;50.904;6.038;2023-04-02T03:10:21;99349.28;;;5.34;100.00
59419;BME280;45224;50.904;6.038;2023-04-02T03:12:03;99360.28;;;5.25;100.00
59419;BME280;45224;50.904;6.038;2023-04-02T03:13:38;99366.81;;;5.06;100.00
59419;BME280;45224;50.904;6.038;2023-04-02T03:17:24;99373.13;;;5.29;100.00
59419;BME280;45224;50.904;6.038;2023-04-02T03:24:40;99386.91;;;5.35;100.00
59419;BME280;45224;50.904;6.038;2023-04-02T03:26:24;99386.91;;;5.35;100.00
59419;BME280;45224;50.904;6.038;2023-04-02T03:28:00;99386.81;;;5.28;100.00
59419;BME280;45224;50.904;6.038;2023-04-02T03:29:35;99396.94;;;5.22;100.00
59419;BME280;45224;50.904;6.038;2023-04-02T03:31:32;99390.03;;;5.18;100.00
59419;BME280;45224;50.904;6.038;2023-04-02T03:33:14;99401.69;;;4.98;100.00
59419;BME280;45224;50.904;6.038;2023-04-02T03:34:57;99405.03;;;4.93;100.00
59419;BME280;45224;50.904;6.038;2023-04-02T03:36:34;99412.00;;;5.01;100.00
59419;BME280;45224;50.904;6.038;2023-04-02T03:38:15;99410.50;;;5.15;100.00
59419;BME280;45224;50.904;6.038;2023-04-02T03:39:57;99424.94;;;5.10;100.00
59419;BME280;45224;50.904;6.038;2023-04-02T03:43:11;99423.97;;;5.02;100.00
59419;BME280;45224;50.904;6.038;2023-04-02T03:46:41;99432.38;;;4.93;100.00
59419;BME280;45224;50.904;6.038;2023-04-02T03:48:23;99431.72;;;5.06;100.00
59419;BME280;45224;50.904;6.038;2023-04-02T03:50:10;99442.59;;;4.91;100.00
59419;BME280;45224;50.904;6.038;2023-04-02T03:52:00;99440.69;;;4.81;100.00
59419;BME280;45224;50.904;6.038;2023-04-02T03:53:32;99440.84;;;4.90;100.00
59419;BME280;45224;50.904;6.038;2023-04-02T03:55:17;99457.59;;;4.73;100.00
59419;BME280;45224;50.904;6.038;2023-04-02T03:56:50;99458.59;;;4.81;100.00
59419;BME280;45224;50.904;6.038;2023-04-02T03:58:29;99466.81;;;4.63;100.00
59419;BME280;45224;50.904;6.038;2023-04-02T04:00:07;99458.06;;;4.52;100.00
59419;BME280;45224;50.904;6.038;2023-04-02T04:01:54;99468.34;;;4.53;100.00
59419;BME280;45224;50.904;6.038;2023-04-02T04:03:36;99472.56;;;4.50;100.00
59419;BME280;45224;50.904;6.038;2023-04-02T04:05:20;99473.22;;;4.39;100.00
59419;BME280;45224;50.904;6.038;2023-04-02T04:06:55;99483.56;;;4.44;100.00
59419;BME280;45224;50.904;6.038;2023-04-02T04:08:33;99482.81;;;4.51;100.00
59419;BME280;45224;50.904;6.038;2023-04-02T04:10:17;99482.78;;;4.50;100.00
59419;BME280;45224;50.904;6.038;2023-04-02T04:11:52;99487.94;;;4.51;100.00
59419;BME280;45224;50.904;6.038;2023-04-02T04:13:32;99481.66;;;4.35;100.00
59419;BME280;45224;50.904;6.038;2023-04-02T04:15:12;99488.59;;;4.41;100.00
59419;BME280;45224;50.904;6.038;2023-04-02T04:18:48;99500.66;;;4.47;100.00
59419;BME280;45224;50.904;6.038;2023-04-02T04:20:23;99504.13;;;4.50;100.00
59419;BME280;45224;50.904;6.038;2023-04-02T04:22:16;99502.56;;;4.55;100.00
59419;BME280;45224;50.904;6.038;2023-04-02T04:23:49;99499.81;;;4.48;100.00
59419;BME280;45224;50.904;6.038;2023-04-02T04:25:27;99510.50;;;4.71;100.00
59419;BME280;45224;50.904;6.038;2023-04-02T04:27:35;99501.88;;;4.66;100.00
59419;BME280;45224;50.904;6.038;2023-04-02T04:30:51;99514.41;;;4.52;100.00
59419;BME280;45224;50.904;6.038;2023-04-02T04:32:34;99516.13;;;4.53;100.00
59419;BME280;45224;50.904;6.038;2023-04-02T04:34:28;99535.16;;;4.25;100.00
59419;BME280;45224;50.904;6.038;2023-04-02T04:36:02;99518.03;;;4.20;100.00
59419;BME280;45224;50.904;6.038;2023-04-02T04:37:38;99530.03;;;4.23;100.00
59419;BME280;45224;50.904;6.038;2023-04-02T04:39:17;99534.47;;;4.32;100.00
59419;BME280;45224;50.904;6.038;2023-04-02T04:41:00;99531.50;;;4.12;100.00
59419;BME280;45224;50.904;6.038;2023-04-02T04:42:36;99535.31;;;4.31;100.00
59419;BME280;45224;50.904;6.038;2023-04-02T04:45:57;99549.25;;;4.45;100.00
59419;BME280;45224;50.904;6.038;2023-04-02T04:47:39;99549.03;;;4.33;100.00
59419;BME280;45224;50.904;6.038;2023-04-02T04:49:21;99557.16;;;4.16;100.00
59419;BME280;45224;50.904;6.038;2023-04-02T04:51:03;99564.41;;;4.34;100.00
59419;BME280;45224;50.904;6.038;2023-04-02T04:52:38;99559.28;;;4.36;100.00
59419;BME280;45224;50.904;6.038;2023-04-02T04:54:12;99566.50;;;4.52;100.00
59419;BME280;45224;50.904;6.038;2023-04-02T04:55:46;99567.06;;;4.41;100.00
59419;BME280;45224;50.904;6.038;2023-04-02T04:57:31;99578.66;;;4.23;100.00
59419;BME280;45224;50.904;6.038;2023-04-02T04:59:26;99575.03;;;4.15;100.00
59419;BME280;45224;50.904;6.038;2023-04-02T05:04:48;99598.84;;;4.11;100.00
59419;BME280;45224;50.904;6.038;2023-04-02T05:06:24;99608.88;;;4.01;100.00
59419;BME280;45224;50.904;6.038;2023-04-02T05:08:10;99601.38;;;4.09;100.00
59419;BME280;45224;50.904;6.038;2023-04-02T05:10:06;99609.38;;;4.23;100.00
59419;BME280;45224;50.904;6.038;2023-04-02T05:12:05;99612.22;;;4.37;100.00
59419;BME280;45224;50.904;6.038;2023-04-02T05:13:51;99617.19;;;4.31;100.00
59419;BME280;45224;50.904;6.038;2023-04-02T05:17:15;99620.16;;;4.48;100.00
59419;BME280;45224;50.904;6.038;2023-04-02T05:18:55;99608.16;;;4.47;100.00
59419;BME280;45224;50.904;6.038;2023-04-02T05:20:32;99625.94;;;4.41;100.00
59419;BME280;45224;50.904;6.038;2023-04-02T05:27:52;99642.31;;;4.09;100.00
59419;BME280;45224;50.904;6.038;2023-04-02T05:29:30;99641.47;;;4.09;100.00
59419;BME280;45224;50.904;6.038;2023-04-02T05:31:07;99648.78;;;3.95;100.00
59419;BME280;45224;50.904;6.038;2023-04-02T05:32:45;99658.09;;;3.91;100.00
59419;BME280;45224;50.904;6.038;2023-04-02T05:34:24;99656.22;;;3.86;100.00
59419;BME280;45224;50.904;6.038;2023-04-02T05:36:11;99653.59;;;3.82;100.00
59419;BME280;45224;50.904;6.038;2023-04-02T05:37:47;99643.44;;;3.86;100.00
59419;BME280;45224;50.904;6.038;2023-04-02T05:39:21;99659.66;;;3.86;100.00
59419;BME280;45224;50.904;6.038;2023-04-02T05:42:51;99666.97;;;3.72;100.00
59419;BME280;45224;50.904;6.038;2023-04-02T05:44:33;99661.88;;;3.72;100.00
59419;BME280;45224;50.904;6.038;2023-04-02T05:46:19;99663.03;;;3.85;100.00
59419;BME280;45224;50.904;6.038;2023-04-02T05:47:56;99668.13;;;3.83;100.00
59419;BME280;45224;50.904;6.038;2023-04-02T05:49:41;99675.09;;;3.91;100.00
59419;BME280;45224;50.904;6.038;2023-04-02T05:51:19;99673.63;;;3.99;100.00
59419;BME280;45224;50.904;6.038;2023-04-02T05:53:05;99678.63;;;3.94;100.00
59419;BME280;45224;50.904;6.038;2023-04-02T05:54:47;99683.09;;;4.03;100.00
59419;BME280;45224;50.904;6.038;2023-04-02T05:56:26;99697.59;;;4.02;100.00
59419;BME280;45224;50.904;6.038;2023-04-02T05:58:05;99696.34;;;3.87;100.00
59419;BME280;45224;50.904;6.038;2023-04-02T05:59:42;99698.38;;;4.00;100.00
59419;BME280;45224;50.904;6.038;2023-04-02T06:01:24;99699.94;;;3.95;100.00
59419;BME280;45224;50.904;6.038;2023-04-02T06:03:03;99700.09;;;4.01;100.00
59419;BME280;45224;50.904;6.038;2023-04-02T06:04:55;99705.22;;;4.01;100.00
59419;BME280;45224;50.904;6.038;2023-04-02T06:08:23;99708.72;;;4.05;100.00
59419;BME280;45224;50.904;6.038;2023-04-02T06:10:03;99715.16;;;4.24;100.00
59419;BME280;45224;50.904;6.038;2023-04-02T06:11:43;99717.47;;;4.14;100.00
59419;BME280;45224;50.904;6.038;2023-04-02T06:13:18;99719.00;;;4.06;100.00
59419;BME280;45224;50.904;6.038;2023-04-02T06:14:49;99723.00;;;3.96;100.00
59419;BME280;45224;50.904;6.038;2023-04-02T06:16:24;99731.28;;;3.86;100.00
59419;BME280;45224;50.904;6.038;2023-04-02T06:19:34;99738.75;;;3.78;100.00
59419;BME280;45224;50.904;6.038;2023-04-02T06:21:07;99743.09;;;3.82;100.00
59419;BME280;45224;50.904;6.038;2023-04-02T06:22:43;99740.72;;;3.89;100.00
59419;BME280;45224;50.904;6.038;2023-04-02T06:24:19;99742.28;;;3.83;100.00
59419;BME280;45224;50.904;6.038;2023-04-02T06:27:28;99757.22;;;3.68;100.00
59419;BME280;45224;50.904;6.038;2023-04-02T06:30:42;99773.69;;;3.79;100.00
59419;BME280;45224;50.904;6.038;2023-04-02T06:32:14;99774.47;;;3.75;100.00
59419;BME280;45224;50.904;6.038;2023-04-02T06:33:47;99774.63;;;3.81;100.00
59419;BME280;45224;50.904;6.038;2023-04-02T06:35:23;99782.06;;;3.72;100.00
59419;BME280;45224;50.904;6.038;2023-04-02T06:37:11;99776.13;;;3.73;100.00
59419;BME280;45224;50.904;6.038;2023-04-02T06:38:46;99773.88;;;3.86;100.00
59419;BME280;45224;50.904;6.038;2023-04-02T06:42:05;99791.47;;;3.73;100.00
59419;BME280;45224;50.904;6.038;2023-04-02T06:44:13;99796.13;;;3.58;100.00
59419;BME280;45224;50.904;6.038;2023-04-02T06:48:18;99809.91;;;3.63;100.00
59419;BME280;45224;50.904;6.038;2023-04-02T06:50:06;99812.75;;;3.43;100.00
59419;BME280;45224;50.904;6.038;2023-04-02T06:51:41;99815.56;;;3.51;100.00
59419;BME280;45224;50.904;6.038;2023-04-02T06:56:52;99825.97;;;3.57;100.00
59419;BME280;45224;50.904;6.038;2023-04-02T06:58:29;99827.75;;;3.61;100.00
59419;BME280;45224;50.904;6.038;2023-04-02T07:00:00;99831.13;;;3.59;100.00
59419;BME280;45224;50.904;6.038;2023-04-02T07:01:34;99839.41;;;3.52;100.00
59419;BME280;45224;50.904;6.038;2023-04-02T07:03:22;99845.53;;;3.57;100.00
59419;BME280;45224;50.904;6.038;2023-04-02T07:05:00;99846.56;;;3.62;100.00
59419;BME280;45224;50.904;6.038;2023-04-02T07:06:31;99846.28;;;3.53;100.00
59419;BME280;45224;50.904;6.038;2023-04-02T07:08:04;99859.34;;;3.62;100.00
59419;BME280;45224;50.904;6.038;2023-04-02T07:09:34;99850.63;;;3.57;100.00
59419;BME280;45224;50.904;6.038;2023-04-02T07:11:13;99859.56;;;3.71;100.00
59419;BME280;45224;50.904;6.038;2023-04-02T07:12:44;99859.47;;;3.68;100.00
59419;BME280;45224;50.904;6.038;2023-04-02T07:14:15;99863.47;;;3.58;100.00
59419;BME280;45224;50.904;6.038;2023-04-02T07:15:48;99860.53;;;3.44;100.00
59419;BME280;45224;50.904;6.038;2023-04-02T07:17:19;99873.03;;;3.64;100.00
59419;BME280;45224;50.904;6.038;2023-04-02T07:18:51;99872.75;;;3.55;100.00
59419;BME280;45224;50.904;6.038;2023-04-02T07:21:58;99884.78;;;3.30;100.00
59419;BME280;45224;50.904;6.038;2023-04-02T07:23:34;99893.00;;;3.20;100.00
59419;BME280;45224;50.904;6.038;2023-04-02T07:25:05;99892.75;;;3.12;100.00
59419;BME280;45224;50.904;6.038;2023-04-02T07:26:35;99903.28;;;3.23;100.00
59419;BME280;45224;50.904;6.038;2023-04-02T07:28:06;99910.09;;;3.22;100.00
59419;BME280;45224;50.904;6.038;2023-04-02T07:29:36;99895.88;;;3.31;100.00
59419;BME280;45224;50.904;6.038;2023-04-02T07:31:15;99907.69;;;3.27;100.00
59419;BME280;45224;50.904;6.038;2023-04-02T07:32:47;99904.34;;;3.28;100.00
59419;BME280;45224;50.904;6.038;2023-04-02T07:34:17;99906.19;;;3.34;100.00
59419;BME280;45224;50.904;6.038;2023-04-02T07:35:49;99904.94;;;3.21;100.00
59419;BME280;45224;50.904;6.038;2023-04-02T07:37:19;99901.06;;;3.06;100.00
59419;BME280;45224;50.904;6.038;2023-04-02T07:38:50;99915.81;;;3.14;100.00
59419;BME280;45224;50.904;6.038;2023-04-02T07:40:21;99914.44;;;3.25;100.00
59419;BME280;45224;50.904;6.038;2023-04-02T07:41:55;99921.38;;;3.29;100.00
59419;BME280;45224;50.904;6.038;2023-04-02T07:43:25;99923.88;;;3.27;100.00
59419;BME280;45224;50.904;6.038;2023-04-02T07:44:56;99923.97;;;3.31;100.00
59419;BME280;45224;50.904;6.038;2023-04-02T07:46:26;99934.44;;;3.11;100.00
59419;BME280;45224;50.904;6.038;2023-04-02T07:47:57;99934.59;;;3.16;100.00
59419;BME280;45224;50.904;6.038;2023-04-02T07:49:33;99942.81;;;3.34;100.00
59419;BME280;45224;50.904;6.038;2023-04-02T07:51:03;99940.22;;;3.31;100.00
59419;BME280;45224;50.904;6.038;2023-04-02T07:52:40;99937.94;;;3.15;100.00
59419;BME280;45224;50.904;6.038;2023-04-02T07:54:13;99934.28;;;3.06;100.00
59419;BME280;45224;50.904;6.038;2023-04-02T07:55:44;99952.00;;;3.02;100.00
59419;BME280;45224;50.904;6.038;2023-04-02T07:57:15;99942.88;;;3.08;100.00
59419;BME280;45224;50.904;6.038;2023-04-02T07:58:45;99948.19;;;3.15;100.00
59419;BME280;45224;50.904;6.038;2023-04-02T08:00:17;99960.78;;;3.10;100.00
59419;BME280;45224;50.904;6.038;2023-04-02T08:01:47;99959.13;;;3.10;100.00
59419;BME280;45224;50.904;6.038;2023-04-02T08:03:18;99968.22;;;3.02;100.00
59419;BME280;45224;50.904;6.038;2023-04-02T08:04:49;99955.84;;;2.89;100.00
59419;BME280;45224;50.904;6.038;2023-04-02T08:06:23;99971.69;;;3.04;100.00
59419;BME280;45224;50.904;6.038;2023-04-02T08:07:55;99972.56;;;3.05;100.00
59419;BME280;45224;50.904;6.038;2023-04-02T08:09:25;99971.84;;;3.09;100.00
59419;BME280;45224;50.904;6.038;2023-04-02T08:10:56;99976.09;;;3.08;100.00
59419;BME280;45224;50.904;6.038;2023-04-02T08:12:26;99974.25;;;3.04;100.00
59419;BME280;45224;50.904;6.038;2023-04-02T08:13:57;99979.72;;;3.15;100.00
59419;BME280;45224;50.904;6.038;2023-04-02T08:15:27;99985.59;;;3.13;100.00
59419;BME280;45224;50.904;6.038;2023-04-02T08:16:58;99986.00;;;2.99;100.00
59419;BME280;45224;50.904;6.038;2023-04-02T08:18:28;99981.00;;;3.02;100.00
59419;BME280;45224;50.904;6.038;2023-04-02T08:19:59;99985.59;;;3.13;100.00
59419;BME280;45224;50.904;6.038;2023-04-02T08:21:30;99989.06;;;3.15;100.00
59419;BME280;45224;50.904;6.038;2023-04-02T08:23:01;99994.63;;;3.03;100.00
59419;BME280;45224;50.904;6.038;2023-04-02T08:24:32;99985.28;;;3.03;100.00
59419;BME280;45224;50.904;6.038;2023-04-02T08:26:04;99996.56;;;3.10;100.00
59419;BME280;45224;50.904;6.038;2023-04-02T08:27:34;99995.69;;;3.09;100.00
59419;BME280;45224;50.904;6.038;2023-04-02T08:29:05;100006.69;;;3.07;100.00
59419;BME280;45224;50.904;6.038;2023-04-02T08:30:36;100009.97;;;3.03;100.00
59419;BME280;45224;50.904;6.038;2023-04-02T08:32:07;100014.44;;;3.10;100.00
59419;BME280;45224;50.904;6.038;2023-04-02T08:33:38;100019.59;;;3.11;100.00
59419;BME280;45224;50.904;6.038;2023-04-02T08:35:14;100016.25;;;3.13;100.00
59419;BME280;45224;50.904;6.038;2023-04-02T08:36:45;100025.13;;;3.24;100.00
59419;BME280;45224;50.904;6.038;2023-04-02T08:38:18;100027.19;;;3.08;100.00
59419;BME280;45224;50.904;6.038;2023-04-02T08:39:49;100028.69;;;3.03;100.00
59419;BME280;45224;50.904;6.038;2023-04-02T08:41:24;100034.53;;;2.99;100.00
59419;BME280;45224;50.904;6.038;2023-04-02T08:47:07;100046.56;;;3.03;100.00
59419;BME280;45224;50.904;6.038;2023-04-02T08:48:41;100046.41;;;2.97;100.00
59419;BME280;45224;50.904;6.038;2023-04-02T08:51:59;100058.88;;;2.89;100.00
59419;BME280;45224;50.904;6.038;2023-04-02T08:53:33;100063.84;;;2.85;100.00
59419;BME280;45224;50.904;6.038;2023-04-02T08:55:24;100064.28;;;2.99;100.00
59419;BME280;45224;50.904;6.038;2023-04-02T08:57:41;100075.06;;;2.90;100.00
59419;BME280;45224;50.904;6.038;2023-04-02T08:59:18;100075.81;;;2.87;100.00
59419;BME280;45224;50.904;6.038;2023-04-02T09:00:53;100072.47;;;2.88;100.00
59419;BME280;45224;50.904;6.038;2023-04-02T09:03:58;100083.47;;;2.86;100.00
59419;BME280;45224;50.904;6.038;2023-04-02T09:05:32;100081.59;;;2.82;100.00
59419;BME280;45224;50.904;6.038;2023-04-02T09:07:03;100090.63;;;2.96;100.00
59419;BME280;45224;50.904;6.038;2023-04-02T09:08:33;100089.53;;;2.89;100.00
59419;BME280;45224;50.904;6.038;2023-04-02T09:10:05;100096.47;;;2.93;100.00
59419;BME280;45224;50.904;6.038;2023-04-02T09:13:35;100097.25;;;2.91;100.00
59419;BME280;45224;50.904;6.038;2023-04-02T09:16:47;100106.56;;;2.90;100.00
59419;BME280;45224;50.904;6.038;2023-04-02T09:18:18;100098.97;;;2.92;100.00
59419;BME280;45224;50.904;6.038;2023-04-02T09:21:45;100115.50;;;3.02;100.00
59419;BME280;45224;50.904;6.038;2023-04-02T09:23:21;100105.28;;;3.02;100.00
59419;BME280;45224;50.904;6.038;2023-04-02T09:24:57;100124.41;;;3.13;100.00
59419;BME280;45224;50.904;6.038;2023-04-02T09:26:30;100117.63;;;3.14;100.00
59419;BME280;45224;50.904;6.038;2023-04-02T09:28:03;100121.78;;;3.11;100.00
59419;BME280;45224;50.904;6.038;2023-04-02T09:29:43;100118.94;;;3.02;100.00
59419;BME280;45224;50.904;6.038;2023-04-02T09:31:19;100124.28;;;3.10;100.00
59419;BME280;45224;50.904;6.038;2023-04-02T09:32:53;100118.44;;;3.13;100.00
59419;BME280;45224;50.904;6.038;2023-04-02T09:34:31;100125.41;;;3.17;100.00
59419;BME280;45224;50.904;6.038;2023-04-02T09:36:02;100122.31;;;3.01;100.00
59419;BME280;45224;50.904;6.038;2023-04-02T09:37:33;100127.56;;;3.06;100.00
59419;BME280;45224;50.904;6.038;2023-04-02T09:39:18;100133.88;;;3.16;100.00
59419;BME280;45224;50.904;6.038;2023-04-02T09:41:03;100136.59;;;3.20;100.00
59419;BME280;45224;50.904;6.038;2023-04-02T09:42:34;100140.84;;;3.20;100.00
59419;BME280;45224;50.904;6.038;2023-04-02T09:44:26;100151.53;;;3.09;100.00
59419;BME280;45224;50.904;6.038;2023-04-02T09:47:42;100153.06;;;3.04;100.00
59419;BME280;45224;50.904;6.038;2023-04-02T09:49:14;100154.81;;;3.05;100.00
59419;BME280;45224;50.904;6.038;2023-04-02T09:50:47;100162.00;;;3.16;100.00
59419;BME280;45224;50.904;6.038;2023-04-02T09:52:27;100162.59;;;3.08;100.00
59419;BME280;45224;50.904;6.038;2023-04-02T09:55:32;100161.06;;;3.14;100.00
59419;BME280;45224;50.904;6.038;2023-04-02T09:57:03;100166.53;;;3.24;100.00
59419;BME280;45224;50.904;6.038;2023-04-02T09:58:35;100170.72;;;3.22;100.00
59419;BME280;45224;50.904;6.038;2023-04-02T10:01:45;100185.22;;;3.22;100.00
59419;BME280;45224;50.904;6.038;2023-04-02T10:03:27;100184.03;;;3.36;100.00
59419;BME280;45224;50.904;6.038;2023-04-02T10:05:02;100189.34;;;3.42;100.00